sensor_id;sensor_type;location;lat;lon;timestamp;pressure;altitude;pressure_sealevel;temperature;humidity
40838;BME280;29632;49.168;9.848;2023-05-03T00:01:08;97606.53;;;15.74;43.01
40838;BME280;29632;49.168;9.848;2023-05-03T00:03:34;97599.16;;;15.69;42.94
40838;BME280;29632;49.168;9.848;2023-05-03T00:06:12;97600.44;;;15.65;43.14
40838;BME280;29632;49.168;9.848;2023-05-03T00:08:38;97595.31;;;15.63;43.17
40838;BME280;29632;49.168;9.848;2023-05-03T00:11:04;97603.53;;;15.60;43.05
40838;BME280;29632;49.168;9.848;2023-05-03T00:13:29;97595.13;;;15.57;43.06
40838;BME280;29632;49.168;9.848;2023-05-03T00:15:55;97600.56;;;15.55;43.10
40838;BME280;29632;49.168;9.848;2023-05-03T00:18:21;97598.22;;;15.52;43.26
40838;BME280;29632;49.168;9.848;2023-05-03T00:20:47;97597.56;;;15.50;43.22
40838;BME280;29632;49.168;9.848;2023-05-03T00:23:12;97596.06;;;15.47;43.10
40838;BME280;29632;49.168;9.848;2023-05-03T00:25:38;97599.81;;;15.45;43.01
40838;BME280;29632;49.168;9.848;2023-05-03T00:28:03;97597.34;;;15.43;43.22
40838;BME280;29632;49.168;9.848;2023-05-03T00:30:29;97594.22;;;15.40;43.04
40838;BME280;29632;49.168;9.848;2023-05-03T00:32:55;97600.44;;;15.39;43.26
40838;BME280;29632;49.168;9.848;2023-05-03T00:35:21;97594.66;;;15.35;43.25
40838;BME280;29632;49.168;9.848;2023-05-03T00:37:47;97587.94;;;15.33;43.37
40838;BME280;29632;49.168;9.848;2023-05-03T00:40:12;97588.25;;;15.29;43.24
40838;BME280;29632;49.168;9.848;2023-05-03T00:42:43;97578.84;;;15.27;43.25
40838;BME280;29632;49.168;9.848;2023-05-03T00:45:09;97580.97;;;15.23;43.11
40838;BME280;29632;49.168;9.848;2023-05-03T00:47:35;97576.88;;;15.21;43.36
40838;BME280;29632;49.168;9.848;2023-05-03T00:50:02;97586.03;;;15.17;43.25
40838;BME280;29632;49.168;9.848;2023-05-03T00:52:28;97580.09;;;15.15;42.94
40838;BME280;29632;49.168;9.848;2023-05-03T00:54:55;97588.28;;;15.12;43.33
40838;BME280;29632;49.168;9.848;2023-05-03T00:57:22;97594.66;;;15.09;43.61
40838;BME280;29632;49.168;9.848;2023-05-03T00:59:48;97586.25;;;15.05;43.50
40838;BME280;29632;49.168;9.848;2023-05-03T01:02:14;97590.19;;;15.01;43.29
40838;BME280;29632;49.168;9.848;2023-05-03T01:04:40;97593.91;;;14.99;43.54
40838;BME280;29632;49.168;9.848;2023-05-03T01:09:52;97585.66;;;14.94;43.37
40838;BME280;29632;49.168;9.848;2023-05-03T01:17:45;97579.38;;;14.86;43.45
40838;BME280;29632;49.168;9.848;2023-05-03T01:20:13;97573.47;;;14.84;43.58
40838;BME280;29632;49.168;9.848;2023-05-03T01:25:13;97580.81;;;14.81;43.39
40838;BME280;29632;49.168;9.848;2023-05-03T01:27:41;97581.13;;;14.78;43.38
40838;BME280;29632;49.168;9.848;2023-05-03T01:30:11;97577.16;;;14.73;43.62
40838;BME280;29632;49.168;9.848;2023-05-03T01:37:58;97575.59;;;14.63;43.61
40838;BME280;29632;49.168;9.848;2023-05-03T01:40:26;97579.19;;;14.62;43.71
40838;BME280;29632;49.168;9.848;2023-05-03T01:42:52;97574.09;;;14.60;43.51
40838;BME280;29632;49.168;9.848;2023-05-03T01:45:19;97569.84;;;14.59;43.58
40838;BME280;29632;49.168;9.848;2023-05-03T01:47:45;97562.94;;;14.58;43.67
40838;BME280;29632;49.168;9.848;2023-05-03T01:50:10;97567.31;;;14.58;43.42
40838;BME280;29632;49.168;9.848;2023-05-03T01:52:36;97567.47;;;14.56;43.69
40838;BME280;29632;49.168;9.848;2023-05-03T01:55:02;97568.44;;;14.55;43.61
40838;BME280;29632;49.168;9.848;2023-05-03T01:57:28;97565.13;;;14.53;43.55
40838;BME280;29632;49.168;9.848;2023-05-03T01:59:53;97569.56;;;14.52;43.71
40838;BME280;29632;49.168;9.848;2023-05-03T02:02:19;97568.91;;;14.50;43.71
40838;BME280;29632;49.168;9.848;2023-05-03T02:04:45;97574.28;;;14.49;43.59
40838;BME280;29632;49.168;9.848;2023-05-03T02:07:10;97575.25;;;14.48;43.60
40838;BME280;29632;49.168;9.848;2023-05-03T02:09:36;97578.00;;;14.46;43.75
40838;BME280;29632;49.168;9.848;2023-05-03T02:12:01;97570.44;;;14.43;43.92
40838;BME280;29632;49.168;9.848;2023-05-03T02:14:27;97577.63;;;14.41;43.53
40838;BME280;29632;49.168;9.848;2023-05-03T02:16:53;97571.72;;;14.39;43.61
40838;BME280;29632;49.168;9.848;2023-05-03T02:19:20;97570.22;;;14.37;43.88
40838;BME280;29632;49.168;9.848;2023-05-03T02:21:46;97573.00;;;14.35;43.69
40838;BME280;29632;49.168;9.848;2023-05-03T02:24:11;97576.72;;;14.32;43.91
40838;BME280;29632;49.168;9.848;2023-05-03T02:26:37;97577.84;;;14.30;43.92
40838;BME280;29632;49.168;9.848;2023-05-03T02:29:03;97572.91;;;14.27;43.76
40838;BME280;29632;49.168;9.848;2023-05-03T02:31:28;97573.19;;;14.24;43.68
40838;BME280;29632;49.168;9.848;2023-05-03T02:33:54;97573.50;;;14.21;43.52
40838;BME280;29632;49.168;9.848;2023-05-03T02:36:20;97574.63;;;14.18;43.88
40838;BME280;29632;49.168;9.848;2023-05-03T02:38:46;97569.66;;;14.15;43.80
40838;BME280;29632;49.168;9.848;2023-05-03T02:41:12;97577.66;;;14.13;44.08
40838;BME280;29632;49.168;9.848;2023-05-03T02:43:37;97575.50;;;14.09;43.73
40838;BME280;29632;49.168;9.848;2023-05-03T02:46:03;97574.97;;;14.05;43.92
40838;BME280;29632;49.168;9.848;2023-05-03T02:48:28;97572.50;;;14.04;43.97
40838;BME280;29632;49.168;9.848;2023-05-03T02:50:54;97571.97;;;14.00;44.00
40838;BME280;29632;49.168;9.848;2023-05-03T02:53:20;97571.28;;;13.98;44.06
40838;BME280;29632;49.168;9.848;2023-05-03T02:55:46;97573.22;;;13.96;43.98
40838;BME280;29632;49.168;9.848;2023-05-03T02:58:11;97571.72;;;13.93;43.90
40838;BME280;29632;49.168;9.848;2023-05-03T03:00:37;97566.78;;;13.90;44.15
40838;BME280;29632;49.168;9.848;2023-05-03T03:03:03;97569.53;;;13.89;43.74
40838;BME280;29632;49.168;9.848;2023-05-03T03:05:28;97569.66;;;13.87;43.85
40838;BME280;29632;49.168;9.848;2023-05-03T03:07:54;97569.84;;;13.86;44.04
40838;BME280;29632;49.168;9.848;2023-05-03T03:10:20;97575.38;;;13.83;43.82
40838;BME280;29632;49.168;9.848;2023-05-03T03:12:45;97577.44;;;13.79;43.64
40838;BME280;29632;49.168;9.848;2023-05-03T03:15:11;97572.34;;;13.77;43.93
40838;BME280;29632;49.168;9.848;2023-05-03T03:17:37;97574.28;;;13.75;43.99
40838;BME280;29632;49.168;9.848;2023-05-03T03:20:07;97579.00;;;13.72;44.09
40838;BME280;29632;49.168;9.848;2023-05-03T03:22:39;97577.47;;;13.69;44.24
40838;BME280;29632;49.168;9.848;2023-05-03T03:25:05;97581.22;;;13.67;44.19
40838;BME280;29632;49.168;9.848;2023-05-03T03:27:31;97578.06;;;13.63;44.18
40838;BME280;29632;49.168;9.848;2023-05-03T03:29:58;97572.97;;;13.62;43.90
40838;BME280;29632;49.168;9.848;2023-05-03T03:32:23;97571.44;;;13.59;44.34
40838;BME280;29632;49.168;9.848;2023-05-03T03:34:49;97567.19;;;13.58;44.19
40838;BME280;29632;49.168;9.848;2023-05-03T03:37:16;97567.47;;;13.55;43.88
40838;BME280;29632;49.168;9.848;2023-05-03T03:39:41;97569.56;;;13.51;44.24
40838;BME280;29632;49.168;9.848;2023-05-03T03:42:10;97574.41;;;13.46;44.32
40838;BME280;29632;49.168;9.848;2023-05-03T03:44:37;97575.50;;;13.44;44.23
40838;BME280;29632;49.168;9.848;2023-05-03T03:47:03;97568.75;;;13.41;43.95
40838;BME280;29632;49.168;9.848;2023-05-03T03:49:28;97569.03;;;13.38;44.44
40838;BME280;29632;49.168;9.848;2023-05-03T03:51:54;97574.28;;;13.38;44.30
40838;BME280;29632;49.168;9.848;2023-05-03T03:54:20;97583.91;;;13.37;43.96
40838;BME280;29632;49.168;9.848;2023-05-03T03:56:45;97578.84;;;13.36;44.13
40838;BME280;29632;49.168;9.848;2023-05-03T03:59:11;97581.72;;;13.33;44.28
40838;BME280;29632;49.168;9.848;2023-05-03T04:01:36;97586.13;;;13.32;44.03
40838;BME280;29632;49.168;9.848;2023-05-03T04:04:03;97591.47;;;13.31;43.90
40838;BME280;29632;49.168;9.848;2023-05-03T04:06:29;97594.09;;;13.31;44.21
40838;BME280;29632;49.168;9.848;2023-05-03T04:08:54;97595.91;;;13.30;43.83
40838;BME280;29632;49.168;9.848;2023-05-03T04:11:20;97595.91;;;13.30;43.78
40838;BME280;29632;49.168;9.848;2023-05-03T04:13:46;97595.06;;;13.30;43.91
40838;BME280;29632;49.168;9.848;2023-05-03T04:16:11;97595.91;;;13.30;44.25
40838;BME280;29632;49.168;9.848;2023-05-03T04:18:37;97601.94;;;13.31;44.00
40838;BME280;29632;49.168;9.848;2023-05-03T04:21:02;97607.31;;;13.29;43.78
40838;BME280;29632;49.168;9.848;2023-05-03T04:23:29;97609.25;;;13.27;44.14
40838;BME280;29632;49.168;9.848;2023-05-03T04:25:55;97609.38;;;13.26;43.99
40838;BME280;29632;49.168;9.848;2023-05-03T04:28:21;97603.47;;;13.23;44.03
40838;BME280;29632;49.168;9.848;2023-05-03T04:30:47;97617.38;;;13.24;43.89
40838;BME280;29632;49.168;9.848;2023-05-03T04:33:13;97614.06;;;13.22;43.74
40838;BME280;29632;49.168;9.848;2023-05-03T04:35:39;97613.25;;;13.21;44.19
40838;BME280;29632;49.168;9.848;2023-05-03T04:38:06;97617.66;;;13.21;43.95
40838;BME280;29632;49.168;9.848;2023-05-03T04:40:31;97621.25;;;13.20;44.07
40838;BME280;29632;49.168;9.848;2023-05-03T04:42:57;97620.28;;;13.21;43.93
40838;BME280;29632;49.168;9.848;2023-05-03T04:45:23;97627.28;;;13.20;44.05
40838;BME280;29632;49.168;9.848;2023-05-03T04:47:48;97627.28;;;13.20;44.11
40838;BME280;29632;49.168;9.848;2023-05-03T04:50:14;97632.38;;;13.22;44.17
40838;BME280;29632;49.168;9.848;2023-05-03T04:52:41;97631.44;;;13.23;43.91
40838;BME280;29632;49.168;9.848;2023-05-03T04:55:07;97634.88;;;13.23;44.03
40838;BME280;29632;49.168;9.848;2023-05-03T04:57:33;97632.09;;;13.25;43.83
40838;BME280;29632;49.168;9.848;2023-05-03T04:59:59;97636.22;;;13.28;44.26
40838;BME280;29632;49.168;9.848;2023-05-03T05:02:24;97635.28;;;13.29;43.96
40838;BME280;29632;49.168;9.848;2023-05-03T05:04:52;97634.19;;;13.31;44.10
40838;BME280;29632;49.168;9.848;2023-05-03T05:07:17;97632.28;;;13.33;44.16
40838;BME280;29632;49.168;9.848;2023-05-03T05:09:43;97638.06;;;13.37;44.06
40838;BME280;29632;49.168;9.848;2023-05-03T05:12:09;97633.38;;;13.40;44.02
40838;BME280;29632;49.168;9.848;2023-05-03T05:14:34;97632.25;;;13.43;43.98
40838;BME280;29632;49.168;9.848;2023-05-03T05:17:00;97634.44;;;13.48;44.04
40838;BME280;29632;49.168;9.848;2023-05-03T05:19:26;97634.00;;;13.52;44.12
40838;BME280;29632;49.168;9.848;2023-05-03T05:21:51;97631.09;;;13.55;44.13
40838;BME280;29632;49.168;9.848;2023-05-03T05:24:17;97636.06;;;13.58;43.82
40838;BME280;29632;49.168;9.848;2023-05-03T05:26:43;97642.66;;;13.63;44.02
40838;BME280;29632;49.168;9.848;2023-05-03T05:29:09;97635.50;;;13.65;43.63
40838;BME280;29632;49.168;9.848;2023-05-03T05:31:34;97644.72;;;13.69;43.91
40838;BME280;29632;49.168;9.848;2023-05-03T05:34:01;97642.63;;;13.72;43.89
40838;BME280;29632;49.168;9.848;2023-05-03T05:36:27;97643.19;;;13.76;44.06
40838;BME280;29632;49.168;9.848;2023-05-03T05:38:52;97648.81;;;13.81;43.82
40838;BME280;29632;49.168;9.848;2023-05-03T05:41:18;97647.53;;;13.85;44.14
40838;BME280;29632;49.168;9.848;2023-05-03T05:43:43;97645.31;;;13.90;43.71
40838;BME280;29632;49.168;9.848;2023-05-03T05:46:10;97650.16;;;13.95;43.73
40838;BME280;29632;49.168;9.848;2023-05-03T05:48:35;97650.41;;;14.02;43.86
40838;BME280;29632;49.168;9.848;2023-05-03T05:51:01;97653.25;;;14.08;43.89
40838;BME280;29632;49.168;9.848;2023-05-03T05:53:27;97650.88;;;14.15;44.19
40838;BME280;29632;49.168;9.848;2023-05-03T05:55:53;97651.94;;;14.22;44.01
40838;BME280;29632;49.168;9.848;2023-05-03T05:58:19;97652.47;;;14.26;43.78
40838;BME280;29632;49.168;9.848;2023-05-03T06:00:44;97650.41;;;14.29;43.96
40838;BME280;29632;49.168;9.848;2023-05-03T06:03:14;97652.56;;;14.34;43.82
40838;BME280;29632;49.168;9.848;2023-05-03T06:05:40;97651.31;;;14.38;43.93
40838;BME280;29632;49.168;9.848;2023-05-03T06:08:06;97651.53;;;14.45;44.12
40838;BME280;29632;49.168;9.848;2023-05-03T06:10:32;97652.78;;;14.50;43.90
40838;BME280;29632;49.168;9.848;2023-05-03T06:12:58;97654.13;;;14.54;43.88
40838;BME280;29632;49.168;9.848;2023-05-03T06:15:23;97652.88;;;14.59;43.82
40838;BME280;29632;49.168;9.848;2023-05-03T06:17:49;97649.97;;;14.62;43.91
40838;BME280;29632;49.168;9.848;2023-05-03T06:20:15;97655.59;;;14.67;43.60
40838;BME280;29632;49.168;9.848;2023-05-03T06:22:40;97653.50;;;14.70;43.78
40838;BME280;29632;49.168;9.848;2023-05-03T06:25:07;97650.28;;;14.77;43.95
40838;BME280;29632;49.168;9.848;2023-05-03T06:27:33;97650.50;;;14.83;43.79
40838;BME280;29632;49.168;9.848;2023-05-03T06:29:58;97649.91;;;14.89;43.82
40838;BME280;29632;49.168;9.848;2023-05-03T06:32:24;97647.66;;;14.95;43.87
40838;BME280;29632;49.168;9.848;2023-05-03T06:34:50;97648.69;;;15.02;43.84
40838;BME280;29632;49.168;9.848;2023-05-03T06:37:16;97646.31;;;15.08;43.92
40838;BME280;29632;49.168;9.848;2023-05-03T06:39:41;97651.94;;;15.14;43.95
40838;BME280;29632;49.168;9.848;2023-05-03T06:42:07;97648.53;;;15.21;43.91
40838;BME280;29632;49.168;9.848;2023-05-03T06:44:33;97653.03;;;15.29;43.89
40838;BME280;29632;49.168;9.848;2023-05-03T06:46:58;97647.81;;;15.37;43.85
40838;BME280;29632;49.168;9.848;2023-05-03T06:49:24;97636.56;;;15.45;43.95
40838;BME280;29632;49.168;9.848;2023-05-03T06:51:49;97638.41;;;15.53;43.80
40838;BME280;29632;49.168;9.848;2023-05-03T06:54:15;97636.81;;;15.60;43.82
40838;BME280;29632;49.168;9.848;2023-05-03T06:56:41;97637.69;;;15.68;43.95
40838;BME280;29632;49.168;9.848;2023-05-03T06:59:07;97634.34;;;15.76;43.63
40838;BME280;29632;49.168;9.848;2023-05-03T07:01:33;97640.47;;;15.85;43.55
40838;BME280;29632;49.168;9.848;2023-05-03T07:03:59;97636.06;;;15.94;43.74
40838;BME280;29632;49.168;9.848;2023-05-03T07:06:25;97635.13;;;16.03;43.63
40838;BME280;29632;49.168;9.848;2023-05-03T07:08:51;97639.72;;;16.09;43.69
40838;BME280;29632;49.168;9.848;2023-05-03T07:11:20;97629.41;;;16.16;43.60
40838;BME280;29632;49.168;9.848;2023-05-03T07:13:53;97636.38;;;16.25;43.75
40838;BME280;29632;49.168;9.848;2023-05-03T07:16:19;97634.59;;;16.34;43.58
40838;BME280;29632;49.168;9.848;2023-05-03T07:18:45;97633.78;;;16.41;43.54
40838;BME280;29632;49.168;9.848;2023-05-03T07:21:12;97633.81;;;16.50;43.42
40838;BME280;29632;49.168;9.848;2023-05-03T07:23:38;97626.09;;;16.56;43.58
40838;BME280;29632;49.168;9.848;2023-05-03T07:26:04;97624.28;;;16.65;43.53
40838;BME280;29632;49.168;9.848;2023-05-03T07:28:30;97618.25;;;16.73;43.48
40838;BME280;29632;49.168;9.848;2023-05-03T07:30:55;97621.84;;;16.80;43.54
40838;BME280;29632;49.168;9.848;2023-05-03T07:33:21;97617.63;;;16.87;43.52
40838;BME280;29632;49.168;9.848;2023-05-03T07:35:47;97615.81;;;16.96;43.44
40838;BME280;29632;49.168;9.848;2023-05-03T07:38:13;97617.66;;;17.04;43.37
40838;BME280;29632;49.168;9.848;2023-05-03T07:40:40;97621.09;;;17.12;43.51
40838;BME280;29632;49.168;9.848;2023-05-03T07:43:06;97622.09;;;17.20;43.42
40838;BME280;29632;49.168;9.848;2023-05-03T07:45:35;97621.41;;;17.26;43.47
40838;BME280;29632;49.168;9.848;2023-05-03T07:48:00;97623.38;;;17.32;43.45
40838;BME280;29632;49.168;9.848;2023-05-03T07:50:26;97624.19;;;17.41;43.51
40838;BME280;29632;49.168;9.848;2023-05-03T07:52:52;97628.47;;;17.50;43.45
40838;BME280;29632;49.168;9.848;2023-05-03T07:55:18;97624.16;;;17.57;43.37
40838;BME280;29632;49.168;9.848;2023-05-03T07:57:44;97620.03;;;17.63;43.42
40838;BME280;29632;49.168;9.848;2023-05-03T08:00:11;97615.94;;;17.68;43.40
40838;BME280;29632;49.168;9.848;2023-05-03T08:02:37;97606.53;;;17.74;43.53
40838;BME280;29632;49.168;9.848;2023-05-03T08:05:03;97604.69;;;17.83;43.30
40838;BME280;29632;49.168;9.848;2023-05-03T08:07:32;97606.47;;;17.90;43.42
40838;BME280;29632;49.168;9.848;2023-05-03T08:09:58;97611.09;;;17.97;43.32
40838;BME280;29632;49.168;9.848;2023-05-03T08:12:24;97607.91;;;18.01;43.46
40838;BME280;29632;49.168;9.848;2023-05-03T08:14:53;97609.38;;;18.12;43.24
40838;BME280;29632;49.168;9.848;2023-05-03T08:17:19;97607.69;;;18.19;43.48
40838;BME280;29632;49.168;9.848;2023-05-03T08:19:46;97603.22;;;18.28;43.07
40838;BME280;29632;49.168;9.848;2023-05-03T08:22:11;97598.72;;;18.37;43.18
40838;BME280;29632;49.168;9.848;2023-05-03T08:24:38;97591.75;;;18.44;43.17
40838;BME280;29632;49.168;9.848;2023-05-03T08:27:04;97602.44;;;18.51;43.15
40838;BME280;29632;49.168;9.848;2023-05-03T08:29:30;97593.81;;;18.57;43.16
40838;BME280;29632;49.168;9.848;2023-05-03T08:31:57;97605.13;;;18.65;43.18
40838;BME280;29632;49.168;9.848;2023-05-03T08:34:24;97609.53;;;18.73;42.95
40838;BME280;29632;49.168;9.848;2023-05-03T08:36:50;97611.47;;;18.79;43.18
40838;BME280;29632;49.168;9.848;2023-05-03T08:39:15;97616.44;;;18.82;43.09
40838;BME280;29632;49.168;9.848;2023-05-03T08:41:41;97615.72;;;18.89;42.98
40838;BME280;29632;49.168;9.848;2023-05-03T08:44:07;97614.19;;;18.94;43.21
40838;BME280;29632;49.168;9.848;2023-05-03T08:46:35;97612.50;;;19.01;43.49
40838;BME280;29632;49.168;9.848;2023-05-03T08:49:02;97614.41;;;19.08;43.14
40838;BME280;29632;49.168;9.848;2023-05-03T08:51:28;97613.88;;;19.12;43.00
40838;BME280;29632;49.168;9.848;2023-05-03T08:53:54;97617.81;;;19.16;42.86
40838;BME280;29632;49.168;9.848;2023-05-03T08:56:24;97620.72;;;19.21;42.95
40838;BME280;29632;49.168;9.848;2023-05-03T08:58:53;97620.84;;;19.28;42.98
40838;BME280;29632;49.168;9.848;2023-05-03T09:01:19;97622.97;;;19.33;43.10
40838;BME280;29632;49.168;9.848;2023-05-03T09:03:49;97623.88;;;19.40;42.89
40838;BME280;29632;49.168;9.848;2023-05-03T09:06:22;97620.34;;;19.48;42.97
40838;BME280;29632;49.168;9.848;2023-05-03T09:08:51;97619.63;;;19.54;42.73
40838;BME280;29632;49.168;9.848;2023-05-03T09:11:30;97618.53;;;19.63;42.98
40838;BME280;29632;49.168;9.848;2023-05-03T09:14:15;97621.72;;;19.73;42.79
40838;BME280;29632;49.168;9.848;2023-05-03T09:16:43;97618.19;;;19.81;42.76
40838;BME280;29632;49.168;9.848;2023-05-03T09:19:10;97620.94;;;19.88;42.69
40838;BME280;29632;49.168;9.848;2023-05-03T09:21:41;97617.38;;;19.95;42.69
40838;BME280;29632;49.168;9.848;2023-05-03T09:24:18;97621.59;;;20.05;42.72
40838;BME280;29632;49.168;9.848;2023-05-03T09:26:45;97625.13;;;20.12;42.68
40838;BME280;29632;49.168;9.848;2023-05-03T09:29:32;97621.56;;;20.19;42.49
40838;BME280;29632;49.168;9.848;2023-05-03T09:32:00;97623.28;;;20.27;42.66
40838;BME280;29632;49.168;9.848;2023-05-03T09:34:26;97617.88;;;20.35;42.53
40838;BME280;29632;49.168;9.848;2023-05-03T09:36:51;97612.47;;;20.44;42.41
40838;BME280;29632;49.168;9.848;2023-05-03T09:39:18;97606.28;;;20.51;42.54
40838;BME280;29632;49.168;9.848;2023-05-03T09:41:44;97603.84;;;20.56;42.49
40838;BME280;29632;49.168;9.848;2023-05-03T09:44:09;97608.25;;;20.64;42.48
40838;BME280;29632;49.168;9.848;2023-05-03T09:46:35;97613.63;;;20.71;42.63
40838;BME280;29632;49.168;9.848;2023-05-03T09:49:02;97606.94;;;20.75;42.39
40838;BME280;29632;49.168;9.848;2023-05-03T09:51:29;97595.59;;;20.81;42.37
40838;BME280;29632;49.168;9.848;2023-05-03T09:53:56;97602.97;;;20.86;42.43
40838;BME280;29632;49.168;9.848;2023-05-03T09:56:23;97600.75;;;20.89;42.59
40838;BME280;29632;49.168;9.848;2023-05-03T09:58:51;97611.59;;;20.94;42.56
40838;BME280;29632;49.168;9.848;2023-05-03T10:01:17;97610.00;;;21.00;42.32
40838;BME280;29632;49.168;9.848;2023-05-03T10:03:44;97599.31;;;21.08;42.27
40838;BME280;29632;49.168;9.848;2023-05-03T10:06:24;97596.97;;;21.20;42.39
40838;BME280;29632;49.168;9.848;2023-05-03T10:11:34;97596.41;;;21.31;42.09
40838;BME280;29632;49.168;9.848;2023-05-03T10:14:00;97599.94;;;21.39;42.17
40838;BME280;29632;49.168;9.848;2023-05-03T10:16:30;97593.53;;;21.48;42.18
40838;BME280;29632;49.168;9.848;2023-05-03T10:19:03;97597.66;;;21.57;42.29
40838;BME280;29632;49.168;9.848;2023-05-03T10:22:05;97586.72;;;21.67;42.08
40838;BME280;29632;49.168;9.848;2023-05-03T10:24:32;97584.31;;;21.72;41.97
40838;BME280;29632;49.168;9.848;2023-05-03T10:26:58;97591.84;;;21.75;42.11
40838;BME280;29632;49.168;9.848;2023-05-03T10:32:26;97594.91;;;21.79;42.05
40838;BME280;29632;49.168;9.848;2023-05-03T10:37:26;97582.50;;;21.79;42.13
40838;BME280;29632;49.168;9.848;2023-05-03T10:39:52;97583.75;;;21.83;42.18
40838;BME280;29632;49.168;9.848;2023-05-03T10:42:21;97591.53;;;21.92;42.13
40838;BME280;29632;49.168;9.848;2023-05-03T10:47:14;97582.44;;;22.08;41.83
40838;BME280;29632;49.168;9.848;2023-05-03T10:49:40;97586.53;;;22.17;41.85
40838;BME280;29632;49.168;9.848;2023-05-03T10:55:12;97578.66;;;22.30;41.92
40838;BME280;29632;49.168;9.848;2023-05-03T10:57:39;97586.66;;;22.37;41.89
40838;BME280;29632;49.168;9.848;2023-05-03T11:00:11;97586.88;;;22.42;41.94
40838;BME280;29632;49.168;9.848;2023-05-03T11:02:41;97584.63;;;22.46;41.64
40838;BME280;29632;49.168;9.848;2023-05-03T11:05:13;97581.16;;;22.52;41.91
40838;BME280;29632;49.168;9.848;2023-05-03T11:07:40;97580.19;;;22.59;41.96
40838;BME280;29632;49.168;9.848;2023-05-03T11:10:24;97573.25;;;22.65;41.67
40838;BME280;29632;49.168;9.848;2023-05-03T11:12:49;97574.06;;;22.72;41.78
40838;BME280;29632;49.168;9.848;2023-05-03T11:15:15;97573.25;;;22.78;41.80
40838;BME280;29632;49.168;9.848;2023-05-03T11:17:41;97572.25;;;22.86;41.77
40838;BME280;29632;49.168;9.848;2023-05-03T11:20:06;97561.44;;;22.94;41.72
40838;BME280;29632;49.168;9.848;2023-05-03T11:22:36;97559.41;;;23.03;41.72
40838;BME280;29632;49.168;9.848;2023-05-03T11:25:01;97553.06;;;23.11;41.43
40838;BME280;29632;49.168;9.848;2023-05-03T11:27:27;97548.56;;;23.18;41.31
40838;BME280;29632;49.168;9.848;2023-05-03T11:29:53;97550.41;;;23.24;41.35
40838;BME280;29632;49.168;9.848;2023-05-03T11:32:26;97546.91;;;23.30;41.46
40838;BME280;29632;49.168;9.848;2023-05-03T11:34:52;97547.94;;;23.36;41.38
40838;BME280;29632;49.168;9.848;2023-05-03T11:37:17;97534.84;;;23.41;41.19
40838;BME280;29632;49.168;9.848;2023-05-03T11:39:43;97534.03;;;23.47;41.37
40838;BME280;29632;49.168;9.848;2023-05-03T11:42:08;97537.28;;;23.56;41.25
40838;BME280;29632;49.168;9.848;2023-05-03T11:44:34;97539.72;;;23.64;40.91
40838;BME280;29632;49.168;9.848;2023-05-03T11:47:02;97542.31;;;23.71;41.24
40838;BME280;29632;49.168;9.848;2023-05-03T11:49:28;97543.56;;;23.75;40.91
40838;BME280;29632;49.168;9.848;2023-05-03T11:51:54;97544.16;;;23.77;40.86
40838;BME280;29632;49.168;9.848;2023-05-03T11:54:20;97538.44;;;23.80;40.61
40838;BME280;29632;49.168;9.848;2023-05-03T11:56:46;97535.38;;;23.83;40.68
40838;BME280;29632;49.168;9.848;2023-05-03T11:59:12;97530.44;;;23.87;40.98
40838;BME280;29632;49.168;9.848;2023-05-03T12:01:37;97532.50;;;23.85;41.00
40838;BME280;29632;49.168;9.848;2023-05-03T12:04:03;97532.72;;;23.83;40.93
40838;BME280;29632;49.168;9.848;2023-05-03T12:06:32;97532.28;;;23.86;40.90
40838;BME280;29632;49.168;9.848;2023-05-03T12:08:59;97533.06;;;23.93;40.96
40838;BME280;29632;49.168;9.848;2023-05-03T12:11:25;97530.00;;;23.97;40.74
40838;BME280;29632;49.168;9.848;2023-05-03T12:13:56;97529.19;;;23.96;41.05
40838;BME280;29632;49.168;9.848;2023-05-03T12:16:23;97517.50;;;23.97;41.18
40838;BME280;29632;49.168;9.848;2023-05-03T12:18:55;97518.75;;;24.01;40.93
40838;BME280;29632;49.168;9.848;2023-05-03T12:21:24;97520.31;;;24.09;40.74
40838;BME280;29632;49.168;9.848;2023-05-03T12:23:50;97514.38;;;24.13;40.55
40838;BME280;29632;49.168;9.848;2023-05-03T12:26:20;97510.25;;;24.18;40.75
40838;BME280;29632;49.168;9.848;2023-05-03T12:28:47;97511.69;;;24.20;40.55
40838;BME280;29632;49.168;9.848;2023-05-03T12:31:14;97506.75;;;24.24;40.42
40838;BME280;29632;49.168;9.848;2023-05-03T12:33:39;97503.00;;;24.31;40.56
40838;BME280;29632;49.168;9.848;2023-05-03T12:36:05;97502.16;;;24.38;40.06
40838;BME280;29632;49.168;9.848;2023-05-03T12:38:32;97503.78;;;24.39;40.08
40838;BME280;29632;49.168;9.848;2023-05-03T12:40:58;97499.72;;;24.36;40.18
40838;BME280;29632;49.168;9.848;2023-05-03T12:43:24;97496.22;;;24.36;40.57
40838;BME280;29632;49.168;9.848;2023-05-03T12:45:50;97501.16;;;24.32;40.35
40838;BME280;29632;49.168;9.848;2023-05-03T12:48:16;97495.09;;;24.18;40.07
40838;BME280;29632;49.168;9.848;2023-05-03T12:50:41;97502.09;;;24.12;40.26
40838;BME280;29632;49.168;9.848;2023-05-03T12:53:07;97497.44;;;24.08;40.40
40838;BME280;29632;49.168;9.848;2023-05-03T12:55:33;97500.09;;;24.08;40.73
40838;BME280;29632;49.168;9.848;2023-05-03T12:57:59;97503.34;;;24.10;40.65
40838;BME280;29632;49.168;9.848;2023-05-03T13:00:25;97500.25;;;24.13;40.56
40838;BME280;29632;49.168;9.848;2023-05-03T13:02:52;97497.38;;;24.15;40.25
40838;BME280;29632;49.168;9.848;2023-05-03T13:05:18;97499.81;;;24.16;40.68
40838;BME280;29632;49.168;9.848;2023-05-03T13:07:44;97492.44;;;24.18;40.29
40838;BME280;29632;49.168;9.848;2023-05-03T13:10:10;97484.44;;;24.18;40.23
40838;BME280;29632;49.168;9.848;2023-05-03T13:12:36;97491.22;;;24.21;40.46
40838;BME280;29632;49.168;9.848;2023-05-03T13:15:02;97492.59;;;24.23;40.31
40838;BME280;29632;49.168;9.848;2023-05-03T13:17:28;97477.03;;;24.27;40.02
40838;BME280;29632;49.168;9.848;2023-05-03T13:19:54;97486.22;;;24.31;40.00
40838;BME280;29632;49.168;9.848;2023-05-03T13:22:21;97475.75;;;24.36;40.11
40838;BME280;29632;49.168;9.848;2023-05-03T13:24:47;97468.38;;;24.38;40.23
40838;BME280;29632;49.168;9.848;2023-05-03T13:27:13;97465.28;;;24.41;40.04